Amboy, Minnesota
Current Conditions -  °F | °C
As of 10:15 AM on Thursday 29 Jan 2015 (Local Time) from KJYG Reporting Station
Overcast Overcast  
Wind Chill: 16°   Ceiling: 1800
Heat Index: 30°   Visibility: 10mi
Dew Point: 25°   Wind: 26mph
Humidity: 80%   Direction: 300°WNW
Pressure: 30.29"   Gusts: 32mph
Location:  43.89°N, 94.16°W
Report Text: KJYG 291615Z AUTO 30023G28KT 10SM BKN018 OVC036 M01/M04 A3029 RMK AO2
Loading
Personal Weather Stations






























Interactive Weather Map New forecast layout! Learn more

10-Day Weather Forecast

Advertisements
Track Severe Weather on mobile